Time;durP1;ratioP1;P1;durP2;ratioP2;P2;SDS_P1;SDS_P2;PMS_P1;PMS_P2;Temp;Humidity;BMP_temperature;BMP_pressure;BME280_temperature;BME280_humidity;BME280_pressure;Samples;Min_cycle;Max_cycle;Signal;HPM_P1;HPM_P2
2023/08/26 00:00:31;;;;;;;;;;;;;;;28.71;100.00;99104.16;4913948;29;19954;-74
2023/08/26 00:02:56;;;;;;;;;;;;;;;28.64;100.00;99107.13;4913508;29;20054;-75
2023/08/26 00:05:22;;;;;;;;;;;;;;;28.63;100.00;99102.00;4914976;29;20018;-74
2023/08/26 00:07:47;;;;;;;;;;;;;;;28.62;100.00;99101.19;4913521;29;19934;-74
2023/08/26 00:10:12;;;;;;;;;;;;;;;28.61;100.00;99106.88;4913590;29;20496;-74
2023/08/26 00:12:38;;;;;;;;;;;;;;;28.58;100.00;99110.94;4909297;29;19951;-74
2023/08/26 00:15:04;;;;;;;;;;;;;;;28.55;100.00;99095.19;4904401;29;20452;-74
2023/08/26 00:17:29;;;;;;;;;;;;;;;28.55;100.00;99095.19;4903428;29;20381;-74
2023/08/26 00:19:54;;;;;;;;;;;;;;;28.52;100.00;99084.88;4904665;29;19927;-73
2023/08/26 00:22:20;;;;;;;;;;;;;;;28.50;100.00;99089.78;4902797;29;19958;-74
2023/08/26 00:24:47;;;;;;;;;;;;;;;28.48;100.00;99089.22;4905165;29;19974;-74
2023/08/26 00:27:12;;;;;;;;;;;;;;;28.46;100.00;99085.94;4904688;29;19927;-75
2023/08/26 00:29:38;;;;;;;;;;;;;;;28.49;100.00;99085.41;4904042;29;20261;-73
2023/08/26 00:32:03;;;;;;;;;;;;;;;28.51;100.00;99091.41;4904259;29;19923;-74
2023/08/26 00:34:29;;;;;;;;;;;;;;;28.45;100.00;99095.19;4903198;29;19980;-74
2023/08/26 00:36:54;;;;;;;;;;;;;;;28.37;100.00;99093.00;4905409;29;19930;-74
2023/08/26 00:39:19;;;;;;;;;;;;;;;28.35;100.00;99095.16;4901259;29;19923;-74
2023/08/26 00:41:46;;;;;;;;;;;;;;;28.40;100.00;99087.84;4903291;29;20296;-74
2023/08/26 00:44:11;;;;;;;;;;;;;;;28.41;100.00;99086.75;4901933;29;20022;-73
2023/08/26 00:46:36;;;;;;;;;;;;;;;28.41;100.00;99084.03;4886751;29;20010;-73
2023/08/26 00:49:02;;;;;;;;;;;;;;;28.38;100.00;99083.78;4902792;29;19923;-73
2023/08/26 00:51:28;;;;;;;;;;;;;;;28.36;100.00;99088.66;4901582;29;19931;-74
2023/08/26 00:53:53;;;;;;;;;;;;;;;28.35;100.00;99087.03;4905348;29;19923;-74
2023/08/26 00:56:19;;;;;;;;;;;;;;;28.35;100.00;99078.88;4885464;29;20388;-74
2023/08/26 00:58:44;;;;;;;;;;;;;;;28.30;100.00;99076.16;4905151;29;19953;-74
2023/08/26 01:01:09;;;;;;;;;;;;;;;28.30;100.00;99066.13;4899354;29;19927;-74
2023/08/26 01:03:35;;;;;;;;;;;;;;;28.24;100.00;99069.09;4900026;29;20379;-74
2023/08/26 01:06:01;;;;;;;;;;;;;;;28.22;100.00;99071.25;4904377;29;19927;-74
2023/08/26 01:08:26;;;;;;;;;;;;;;;28.19;100.00;99080.78;4902255;29;19927;-74
2023/08/26 01:10:58;;;;;;;;;;;;;;;28.18;100.00;99083.75;4888899;29;19924;-73
2023/08/26 01:13:49;;;;;;;;;;;;;;;28.17;100.00;99087.53;4903418;29;19930;-74
2023/08/26 01:16:15;;;;;;;;;;;;;;;28.20;100.00;99089.72;4900504;29;20017;-74
2023/08/26 01:18:41;;;;;;;;;;;;;;;28.19;100.00;99086.19;4927862;29;20086;-73
2023/08/26 01:21:10;;;;;;;;;;;;;;;28.20;100.00;99095.16;4927549;29;19934;-73
2023/08/26 01:23:39;;;;;;;;;;;;;;;28.18;100.00;99091.88;4913467;29;20388;-74
2023/08/26 01:26:04;;;;;;;;;;;;;;;28.19;100.00;99093.53;4913173;29;19927;-74
2023/08/26 01:28:30;;;;;;;;;;;;;;;28.20;100.00;99089.72;4930941;29;20638;-74
2023/08/26 01:30:56;;;;;;;;;;;;;;;28.10;100.00;99093.19;4913758;29;19961;-72
2023/08/26 01:33:24;;;;;;;;;;;;;;;28.08;100.00;99096.19;4931391;29;19963;-74
2023/08/26 01:35:54;;;;;;;;;;;;;;;27.99;100.00;99105.91;4916212;29;19946;-73
2023/08/26 01:38:20;;;;;;;;;;;;;;;27.90;100.00;99104.81;4930943;29;20001;-73
2023/08/26 01:40:53;;;;;;;;;;;;;;;27.72;100.00;99108.00;4916202;29;20391;-73
2023/08/26 01:43:19;;;;;;;;;;;;;;;27.75;100.00;99099.31;4931377;29;19924;-72
2023/08/26 01:45:45;;;;;;;;;;;;;;;27.76;100.00;99108.25;4915771;29;20418;-73
2023/08/26 01:48:10;;;;;;;;;;;;;;;27.73;100.00;99104.22;4930780;29;19923;-73
2023/08/26 01:50:35;;;;;;;;;;;;;;;27.68;100.00;99106.91;4916518;29;20371;-73
2023/08/26 01:53:01;;;;;;;;;;;;;;;27.66;100.00;99093.59;4930640;29;19930;-73
2023/08/26 01:55:26;;;;;;;;;;;;;;;27.69;100.00;99098.47;4916439;29;19950;-73
2023/08/26 01:57:52;;;;;;;;;;;;;;;27.71;100.00;99090.09;4930491;29;19923;-73
2023/08/26 02:00:18;;;;;;;;;;;;;;;27.71;100.00;99084.66;4930328;29;19990;-73
2023/08/26 02:02:43;;;;;;;;;;;;;;;27.72;100.00;99078.16;4915902;29;21083;-72
2023/08/26 02:05:09;;;;;;;;;;;;;;;27.70;100.00;99083.03;4915889;29;20380;-73
2023/08/26 02:07:34;;;;;;;;;;;;;;;27.69;100.00;99075.97;4915848;29;20305;-73
2023/08/26 02:09:59;;;;;;;;;;;;;;;27.69;100.00;99081.41;4930185;29;20368;-73
2023/08/26 02:12:24;;;;;;;;;;;;;;;27.71;100.00;99084.66;4930205;29;19924;-73
2023/08/26 02:14:50;;;;;;;;;;;;;;;27.73;100.00;99082.50;4930018;29;19942;-73
2023/08/26 02:17:15;;;;;;;;;;;;;;;27.73;100.00;99087.94;4929802;29;19927;-73
2023/08/26 02:19:42;;;;;;;;;;;;;;;27.75;100.00;99090.34;4929903;29;20005;-72
2023/08/26 02:22:08;;;;;;;;;;;;;;;27.74;100.00;99089.56;4914159;29;20075;-73
2023/08/26 02:24:33;;;;;;;;;;;;;;;27.69;100.00;99089.53;4915649;29;19929;-73
2023/08/26 02:27:00;;;;;;;;;;;;;;;27.66;100.00;99087.38;4915156;29;20017;-73
2023/08/26 02:29:25;;;;;;;;;;;;;;;27.67;100.00;99087.09;4915662;29;19923;-73
2023/08/26 02:31:50;;;;;;;;;;;;;;;27.69;100.00;99092.25;4929483;29;19929;-73
2023/08/26 02:34:16;;;;;;;;;;;;;;;27.67;100.00;99094.41;4929791;29;19935;-73
2023/08/26 02:36:41;;;;;;;;;;;;;;;27.58;100.00;99102.22;4929680;29;19923;-73
2023/08/26 02:39:06;;;;;;;;;;;;;;;27.54;100.00;99111.16;4915127;29;20387;-71
2023/08/26 02:41:32;;;;;;;;;;;;;;;27.46;100.00;99115.16;4929763;29;19951;-72
2023/08/26 02:43:57;;;;;;;;;;;;;;;27.19;100.00;99119.88;4914570;29;19919;-72
2023/08/26 02:46:22;;;;;;;;;;;;;;;27.22;100.00;99114.72;4929449;29;19923;-73
2023/08/26 02:48:48;;;;;;;;;;;;;;;27.09;100.00;99117.91;4914606;29;20029;-74
2023/08/26 02:51:13;;;;;;;;;;;;;;;27.09;100.00;99122.50;4929596;29;19923;-73
2023/08/26 02:53:38;;;;;;;;;;;;;;;27.11;100.00;99112.22;4929548;29;19923;-72
2023/08/26 02:56:04;;;;;;;;;;;;;;;27.09;100.00;99115.22;4914764;29;19990;-73
2023/08/26 02:58:30;;;;;;;;;;;;;;;27.04;100.00;99117.84;4929551;29;20380;-73
2023/08/26 03:00:59;;;;;;;;;;;;;;;27.06;100.00;99113.00;4914774;29;19923;-73
2023/08/26 03:03:24;;;;;;;;;;;;;;;27.05;100.00;99097.84;4914639;29;20051;-74
2023/08/26 03:05:50;;;;;;;;;;;;;;;27.09;100.00;99098.16;4929084;29;20356;-74
2023/08/26 03:08:16;;;;;;;;;;;;;;;27.07;100.00;99100.28;4929426;29;19927;-74
2023/08/26 03:10:42;;;;;;;;;;;;;;;27.07;100.00;99101.09;4929201;29;20525;-74
2023/08/26 03:13:07;;;;;;;;;;;;;;;27.02;100.00;99092.94;4928934;29;19927;-73
2023/08/26 03:15:34;;;;;;;;;;;;;;;26.93;100.00;99110.75;4929105;29;20372;-74
2023/08/26 03:17:59;;;;;;;;;;;;;;;26.97;100.00;99101.03;4914157;29;19923;-74
2023/08/26 03:20:25;;;;;;;;;;;;;;;26.95;100.00;99113.19;4928949;29;19930;-74
2023/08/26 03:22:50;;;;;;;;;;;;;;;26.83;100.00;99105.22;4929045;29;20018;-74
2023/08/26 03:25:16;;;;;;;;;;;;;;;26.76;100.00;99115.44;4929034;29;19923;-73
2023/08/26 03:27:41;;;;;;;;;;;;;;;26.69;100.00;99129.19;4928810;29;20009;-74
2023/08/26 03:30:07;;;;;;;;;;;;;;;26.39;100.00;99127.03;4969785;23;19937;-77
2023/08/26 03:32:32;;;;;;;;;;;;;;;26.32;100.00;99141.84;4952122;29;19922;-79
2023/08/26 03:34:58;;;;;;;;;;;;;;;26.21;100.00;99135.50;4950275;29;20010;-78
2023/08/26 03:37:24;;;;;;;;;;;;;;;26.15;100.00;99139.22;4958477;28;19923;-78
2023/08/26 03:39:49;;;;;;;;;;;;;;;26.08;100.00;99136.69;4947620;29;20450;-77
2023/08/26 03:42:15;;;;;;;;;;;;;;;26.09;100.00;99137.50;4959494;28;19926;-78
2023/08/26 03:44:40;;;;;;;;;;;;;;;26.05;100.00;99136.38;4951020;29;19929;-78
2023/08/26 03:47:05;;;;;;;;;;;;;;;26.12;100.00;99130.75;4958981;28;19922;-80
2023/08/26 03:49:31;;;;;;;;;;;;;;;26.14;100.00;99140.28;4952702;28;20303;-77
2023/08/26 03:51:56;;;;;;;;;;;;;;;26.16;100.00;99138.09;4950970;29;19922;-79
2023/08/26 03:54:23;;;;;;;;;;;;;;;26.16;100.00;99130.00;4959745;28;19922;-79
2023/08/26 03:56:48;;;;;;;;;;;;;;;26.19;100.00;99126.81;4950758;29;20081;-79
2023/08/26 03:59:13;;;;;;;;;;;;;;;26.18;100.00;99125.16;4954635;28;19973;-79
2023/08/26 04:01:39;;;;;;;;;;;;;;;26.17;100.00;99128.94;4954813;28;19949;-79
2023/08/26 04:04:04;;;;;;;;;;;;;;;26.14;100.00;99139.44;4959059;28;19954;-79
2023/08/26 04:06:31;;;;;;;;;;;;;;;26.13;100.00;99137.81;4951981;29;20410;-79
2023/08/26 04:08:57;;;;;;;;;;;;;;;26.09;100.00;99149.13;4942286;29;20006;-78
2023/08/26 04:11:23;;;;;;;;;;;;;;;26.06;100.00;99144.22;4951933;28;19934;-79
2023/08/26 04:13:48;;;;;;;;;;;;;;;26.01;100.00;99152.28;4955072;28;19923;-78
2023/08/26 04:16:15;;;;;;;;;;;;;;;25.99;100.00;99153.59;4946537;29;19937;-78
2023/08/26 04:18:42;;;;;;;;;;;;;;;25.94;100.00;99157.06;4958453;28;19922;-78
2023/08/26 04:21:09;;;;;;;;;;;;;;;25.94;100.00;99167.88;4950366;29;19973;-79
2023/08/26 04:23:34;;;;;;;;;;;;;;;25.90;100.00;99160.53;4958822;28;19923;-79
2023/08/26 04:26:02;;;;;;;;;;;;;;;25.90;100.00;99163.22;4951508;29;19989;-79
2023/08/26 04:28:29;;;;;;;;;;;;;;;25.82;100.00;99169.06;4958693;28;20388;-79
2023/08/26 04:30:54;;;;;;;;;;;;;;;25.80;100.00;99165.81;4953713;28;19938;-79
2023/08/26 04:33:20;;;;;;;;;;;;;;;25.76;100.00;99170.88;4951835;29;19972;-79
2023/08/26 04:35:45;;;;;;;;;;;;;;;25.78;100.00;99173.34;4951553;29;19926;-79
2023/08/26 04:38:11;;;;;;;;;;;;;;;25.76;100.00;99170.06;4950117;29;19993;-79
2023/08/26 04:40:36;;;;;;;;;;;;;;;25.68;100.00;99174.84;4958409;28;20088;-78
2023/08/26 04:43:03;;;;;;;;;;;;;;;25.60;100.00;99172.56;4951364;29;19922;-79
2023/08/26 04:45:29;;;;;;;;;;;;;;;25.61;100.00;99185.03;4951461;29;19922;-79
2023/08/26 04:47:54;;;;;;;;;;;;;;;25.59;100.00;99181.75;4949775;29;20371;-79
2023/08/26 04:50:19;;;;;;;;;;;;;;;25.51;100.00;99184.81;4958874;28;19927;-78
2023/08/26 04:52:45;;;;;;;;;;;;;;;25.58;100.00;99190.09;4950641;29;20394;-79
2023/08/26 04:55:10;;;;;;;;;;;;;;;25.52;100.00;99191.06;4958432;28;19933;-79
2023/08/26 04:57:35;;;;;;;;;;;;;;;25.47;100.00;99183.69;4958603;28;19922;-78
2023/08/26 05:00:01;;;;;;;;;;;;;;;25.40;100.00;99195.72;4953494;28;20009;-80
2023/08/26 05:02:27;;;;;;;;;;;;;;;25.34;100.00;99200.25;4932843;29;19981;-79
2023/08/26 05:04:53;;;;;;;;;;;;;;;25.37;100.00;99210.56;4950083;28;19978;-79
2023/08/26 05:07:19;;;;;;;;;;;;;;;25.41;100.00;99217.09;4953817;29;19930;-79
2023/08/26 05:09:44;;;;;;;;;;;;;;;25.38;100.00;99217.59;4968485;28;20391;-79
2023/08/26 05:12:10;;;;;;;;;;;;;;;25.35;100.00;99223.50;4966178;28;19934;-79
2023/08/26 05:14:36;;;;;;;;;;;;;;;25.37;100.00;99218.66;4953572;29;19930;-79
2023/08/26 05:17:01;;;;;;;;;;;;;;;25.31;100.00;99216.13;4954826;28;19968;-79
2023/08/26 05:19:26;;;;;;;;;;;;;;;25.31;100.00;99214.25;4953927;29;20073;-79
2023/08/26 05:21:52;;;;;;;;;;;;;;;25.34;100.00;99215.63;4953574;29;19922;-79
2023/08/26 05:24:17;;;;;;;;;;;;;;;25.27;100.00;99226.63;4954483;29;19922;-78
2023/08/26 05:26:44;;;;;;;;;;;;;;;25.32;100.00;99233.97;4963583;28;20002;-79
2023/08/26 05:29:10;;;;;;;;;;;;;;;25.35;100.00;99223.50;4966037;28;19942;-78
2023/08/26 05:31:35;;;;;;;;;;;;;;;25.32;100.00;99221.28;4955141;28;20376;-79
2023/08/26 05:34:01;;;;;;;;;;;;;;;25.40;100.00;99223.56;4965684;28;19927;-79
2023/08/26 05:36:26;;;;;;;;;;;;;;;25.40;100.00;99230.84;4962840;28;20025;-79
2023/08/26 05:38:52;;;;;;;;;;;;;;;25.39;100.00;99234.63;4954586;28;19926;-78
2023/08/26 05:41:17;;;;;;;;;;;;;;;25.45;100.00;99231.75;4954485;28;20058;-78
2023/08/26 05:43:42;;;;;;;;;;;;;;;25.39;100.00;99240.84;4963113;28;19950;-78
2023/08/26 05:46:09;;;;;;;;;;;;;;;25.38;100.00;99244.63;4951734;28;20299;-78
2023/08/26 05:48:35;;;;;;;;;;;;;;;25.41;100.00;99233.31;4954657;29;20005;-79
2023/08/26 05:51:01;;;;;;;;;;;;;;;25.50;100.00;99236.44;4965509;28;19927;-79
2023/08/26 05:53:28;;;;;;;;;;;;;;;25.55;100.00;99234.63;4961492;28;19929;-78
2023/08/26 05:55:53;;;;;;;;;;;;;;;25.52;100.00;99243.19;4960725;28;19922;-79
2023/08/26 05:58:18;;;;;;;;;;;;;;;25.58;100.00;99234.13;4961096;28;19929;-79
2023/08/26 06:00:44;;;;;;;;;;;;;;;25.60;100.00;99220.38;4968191;28;19922;-79
2023/08/26 06:03:10;;;;;;;;;;;;;;;25.65;100.00;99228.56;4953049;29;19923;-79
2023/08/26 06:05:35;;;;;;;;;;;;;;;25.60;100.00;99229.31;4953036;28;20351;-79
2023/08/26 06:08:01;;;;;;;;;;;;;;;25.65;100.00;99229.38;4950179;28;20017;-79
2023/08/26 06:10:26;;;;;;;;;;;;;;;25.67;100.00;99243.47;4952871;29;20016;-80
2023/08/26 06:12:52;;;;;;;;;;;;;;;25.72;100.00;99244.59;4953939;29;19930;-79
2023/08/26 06:15:20;;;;;;;;;;;;;;;25.68;100.00;99242.38;4952521;29;19969;-79
2023/08/26 06:17:45;;;;;;;;;;;;;;;25.79;100.00;99246.06;4952827;28;19977;-79
2023/08/26 06:20:15;;;;;;;;;;;;;;;25.79;100.00;99246.06;4952723;29;19931;-80
2023/08/26 06:22:42;;;;;;;;;;;;;;;25.85;100.00;99252.38;4954130;29;19978;-79
2023/08/26 06:25:08;;;;;;;;;;;;;;;25.91;100.00;99243.25;4951229;29;19934;-79
2023/08/26 06:27:34;;;;;;;;;;;;;;;25.91;100.00;99254.06;4954000;29;19922;-79
2023/08/26 06:30:03;;;;;;;;;;;;;;;25.83;100.00;99254.50;4973542;28;20383;-79
2023/08/26 06:32:31;;;;;;;;;;;;;;;25.88;100.00;99260.78;4954843;28;19923;-79
2023/08/26 06:34:56;;;;;;;;;;;;;;;25.92;100.00;99264.63;4952247;29;19923;-79
2023/08/26 06:37:22;;;;;;;;;;;;;;;26.01;100.00;99265.03;4960750;28;19979;-79
2023/08/26 06:39:47;;;;;;;;;;;;;;;26.07;100.00;99266.72;4958273;28;19922;-79
2023/08/26 06:42:14;;;;;;;;;;;;;;;26.12;100.00;99261.38;4952287;29;20159;-79
2023/08/26 06:44:50;;;;;;;;;;;;;;;26.23;100.00;99262.31;4951635;29;19919;-78
2023/08/26 06:47:15;;;;;;;;;;;;;;;26.18;100.00;99265.78;4935620;29;20097;-78
2023/08/26 06:49:40;;;;;;;;;;;;;;;26.24;100.00;99269.41;4953389;29;19966;-79
2023/08/26 06:52:06;;;;;;;;;;;;;;;26.27;100.00;99269.72;4951678;29;19926;-79
2023/08/26 06:54:33;;;;;;;;;;;;;;;26.25;100.00;99265.63;4951980;29;19933;-79
2023/08/26 06:56:58;;;;;;;;;;;;;;;26.33;100.00;99263.28;4951632;29;20458;-79
2023/08/26 06:59:23;;;;;;;;;;;;;;;26.34;100.00;99258.69;4956982;28;20009;-79
2023/08/26 07:01:49;;;;;;;;;;;;;;;26.44;100.00;99258.84;4952755;28;20036;-79
2023/08/26 07:04:14;;;;;;;;;;;;;;;26.51;100.00;99261.38;4953176;29;19922;-79
2023/08/26 07:06:39;;;;;;;;;;;;;;;26.49;100.00;99256.19;4953332;29;19933;-79
2023/08/26 07:09:05;;;;;;;;;;;;;;;26.59;100.00;99255.47;4952823;29;20076;-80
2023/08/26 07:11:31;;;;;;;;;;;;;;;26.60;100.00;99257.94;4953269;29;20299;-80
2023/08/26 07:13:57;;;;;;;;;;;;;;;26.65;100.00;99246.34;4952323;29;19977;-80
2023/08/26 07:16:24;;;;;;;;;;;;;;;26.72;100.00;99244.25;4952787;29;19926;-78
2023/08/26 07:18:49;;;;;;;;;;;;;;;26.81;100.00;99234.59;4952597;29;19961;-79
2023/08/26 07:21:15;;;;;;;;;;;;;;;26.76;100.00;99234.56;4952233;29;19977;-78
2023/08/26 07:23:41;;;;;;;;;;;;;;;26.84;100.00;99239.50;4952976;29;19922;-78
2023/08/26 07:26:06;;;;;;;;;;;;;;;26.94;100.00;99253.16;4952790;29;19922;-79
2023/08/26 07:28:31;;;;;;;;;;;;;;;26.98;100.00;99254.28;4952171;28;19958;-78
2023/08/26 07:31:04;;;;;;;;;;;;;;;27.09;100.00;99257.94;4955766;28;20108;-79
2023/08/26 07:33:30;;;;;;;;;;;;;;;27.16;100.00;99264.75;4952661;29;19922;-79
2023/08/26 07:36:09;;;;;;;;;;;;;;;27.13;100.00;99267.97;4952190;29;19977;-79
2023/08/26 07:38:34;;;;;;;;;;;;;;;27.09;100.00;99275.00;4952942;28;19976;-78
2023/08/26 07:40:59;;;;;;;;;;;;;;;27.08;100.00;99280.66;4952120;29;19945;-79
2023/08/26 07:43:25;;;;;;;;;;;;;;;26.99;100.00;99272.16;4952455;29;19922;-79
2023/08/26 07:45:50;;;;;;;;;;;;;;;27.03;100.00;99265.19;4951429;29;19934;-78
2023/08/26 07:48:16;;;;;;;;;;;;;;;27.05;100.00;99271.16;4951834;29;20341;-79
2023/08/26 07:50:41;;;;;;;;;;;;;;;27.09;100.00;99266.88;4952037;29;19922;-78
2023/08/26 07:53:06;;;;;;;;;;;;;;;27.08;100.00;99267.94;4951906;29;19922;-79
2023/08/26 07:55:32;;;;;;;;;;;;;;;27.17;100.00;99274.50;4951739;29;19922;-78
2023/08/26 07:57:57;;;;;;;;;;;;;;;27.22;100.00;99271.84;4952029;29;19930;-79
2023/08/26 08:00:23;;;;;;;;;;;;;;;27.23;100.00;99262.66;4951527;28;19970;-79
2023/08/26 08:02:48;;;;;;;;;;;;;;;27.23;100.00;99264.53;4951751;29;19922;-79
2023/08/26 08:05:13;;;;;;;;;;;;;;;27.21;100.00;99262.09;4956155;28;19922;-79
2023/08/26 08:07:39;;;;;;;;;;;;;;;27.25;100.00;99273.22;4952193;28;20776;-79
2023/08/26 08:10:04;;;;;;;;;;;;;;;27.27;100.00;99276.50;4951828;29;20284;-79
2023/08/26 08:12:30;;;;;;;;;;;;;;;27.28;100.00;99264.56;4951975;29;20382;-80
2023/08/26 08:14:55;;;;;;;;;;;;;;;27.34;100.00;99268.13;4951584;28;19922;-79
2023/08/26 08:17:20;;;;;;;;;;;;;;;27.38;100.00;99261.16;4943885;29;20390;-79
2023/08/26 08:19:46;;;;;;;;;;;;;;;27.41;100.00;99257.91;4951452;28;19922;-80
2023/08/26 08:22:12;;;;;;;;;;;;;;;27.36;100.00;99255.97;4951695;29;20401;-79
2023/08/26 08:24:37;;;;;;;;;;;;;;;27.36;100.00;99271.41;4951694;29;19919;-79
2023/08/26 08:27:03;;;;;;;;;;;;;;;27.40;100.00;99267.09;4951650;29;20017;-79
2023/08/26 08:29:28;;;;;;;;;;;;;;;27.44;100.00;99271.78;4951545;28;20299;-79
2023/08/26 08:31:53;;;;;;;;;;;;;;;27.49;100.00;99263.69;4950697;29;20524;-80
2023/08/26 08:34:19;;;;;;;;;;;;;;;27.55;100.00;99259.16;4951435;28;19933;-80
2023/08/26 08:36:44;;;;;;;;;;;;;;;27.63;100.00;99261.34;4951573;28;20391;-79
2023/08/26 08:39:09;;;;;;;;;;;;;;;27.70;100.00;99267.38;4951395;29;19927;-78
2023/08/26 08:41:37;;;;;;;;;;;;;;;27.72;100.00;99259.81;4954408;28;19929;-79
2023/08/26 08:44:09;;;;;;;;;;;;;;;27.71;100.00;99258.16;4955501;29;20344;-79
2023/08/26 08:46:35;;;;;;;;;;;;;;;27.74;100.00;99267.69;4955487;28;20018;-79
2023/08/26 08:49:00;;;;;;;;;;;;;;;27.79;100.00;99254.16;4955081;29;20012;-79
2023/08/26 08:51:27;;;;;;;;;;;;;;;27.78;100.00;99257.94;4955683;29;19926;-79
2023/08/26 08:53:53;;;;;;;;;;;;;;;27.78;100.00;99257.94;4953124;28;19977;-80
2023/08/26 08:56:18;;;;;;;;;;;;;;;27.76;100.00;99249.25;4954829;29;20328;-79
2023/08/26 08:58:51;;;;;;;;;;;;;;;27.85;100.00;99244.97;4955313;29;19922;-80
2023/08/26 09:01:20;;;;;;;;;;;;;;;27.93;100.00;99239.84;4959578;28;20311;-80
2023/08/26 09:03:46;;;;;;;;;;;;;;;28.03;100.00;99234.50;4955115;29;20352;-78
2023/08/26 09:06:12;;;;;;;;;;;;;;;28.14;100.00;99235.38;4954565;29;19977;-80
2023/08/26 09:08:37;;;;;;;;;;;;;;;28.25;100.00;99219.97;4955303;29;19920;-77
2023/08/26 09:11:03;;;;;;;;;;;;;;;28.34;100.00;99202.88;4955452;28;19969;-79
2023/08/26 09:13:28;;;;;;;;;;;;;;;28.41;100.00;99192.59;4955613;29;19927;-78
2023/08/26 09:15:53;;;;;;;;;;;;;;;28.48;100.00;99187.75;4955176;28;20009;-78
2023/08/26 09:18:19;;;;;;;;;;;;;;;28.56;100.00;99199.16;4955355;28;19922;-79
2023/08/26 09:20:47;;;;;;;;;;;;;;;28.49;100.00;99211.09;4955027;29;19923;-79
2023/08/26 09:23:12;;;;;;;;;;;;;;;28.56;100.00;99212.72;4955228;29;20314;-79
2023/08/26 09:25:38;;;;;;;;;;;;;;;28.63;100.00;99211.38;4955499;29;19923;-79
2023/08/26 09:28:06;;;;;;;;;;;;;;;28.74;100.00;99213.06;4955252;29;19933;-80
2023/08/26 09:30:31;;;;;;;;;;;;;;;28.84;100.00;99218.50;4963024;28;19927;-80
2023/08/26 09:32:56;;;;;;;;;;;;;;;28.95;100.00;99223.94;4969290;28;19973;-79
2023/08/26 09:35:22;;;;;;;;;;;;;;;29.00;100.00;99215.81;4954730;29;19923;-79
2023/08/26 09:37:48;;;;;;;;;;;;;;;29.05;100.00;99219.34;4953946;29;20355;-79
2023/08/26 09:40:14;;;;;;;;;;;;;;;29.09;100.00;99223.16;4953534;28;19994;-79
2023/08/26 09:42:41;;;;;;;;;;;;;;;29.13;100.00;99204.41;4954863;29;20375;-79
2023/08/26 09:45:07;;;;;;;;;;;;;;;29.15;100.00;99202.25;4954485;29;19926;-80
2023/08/26 09:47:39;;;;;;;;;;;;;;;29.11;100.00;99195.69;4954854;29;19922;-80
2023/08/26 09:50:05;;;;;;;;;;;;;;;29.04;100.00;99190.53;4954497;29;19938;-80
2023/08/26 09:52:40;;;;;;;;;;;;;;;28.99;100.00;99189.72;4953253;28;20302;-79
2023/08/26 09:55:06;;;;;;;;;;;;;;;28.94;100.00;99187.81;4954842;28;19923;-80
2023/08/26 09:57:31;;;;;;;;;;;;;;;29.01;100.00;99174.78;4954373;29;19923;-80
2023/08/26 09:59:57;;;;;;;;;;;;;;;29.05;100.00;99165.00;4953960;28;19934;-80
2023/08/26 10:02:23;;;;;;;;;;;;;;;29.13;100.00;99171.78;4954380;28;19953;-79
2023/08/26 10:04:55;;;;;;;;;;;;;;;29.21;100.00;99179.41;4954230;29;20336;-80
2023/08/26 10:07:22;;;;;;;;;;;;;;;29.28;100.00;99196.22;4953309;29;19927;-80
2023/08/26 10:09:52;;;;;;;;;;;;;;;29.33;100.00;99201.72;4954380;29;19945;-80
2023/08/26 10:12:19;;;;;;;;;;;;;;;29.37;100.00;99201.97;4954269;29;19926;-79
2023/08/26 10:14:47;;;;;;;;;;;;;;;29.42;100.00;99207.41;4954682;29;19933;-80
2023/08/26 10:17:13;;;;;;;;;;;;;;;29.46;100.00;99198.41;4953990;29;20391;-78
2023/08/26 10:19:39;;;;;;;;;;;;;;;29.51;100.00;99195.69;4954348;29;19930;-79
2023/08/26 10:22:05;;;;;;;;;;;;;;;29.61;100.00;99181.28;4953501;29;19977;-77
2023/08/26 10:24:31;;;;;;;;;;;;;;;29.70;100.00;99166.81;4953651;29;19926;-78
2023/08/26 10:26:56;;;;;;;;;;;;;;;29.81;100.00;99175.75;4953676;28;19977;-79
2023/08/26 10:29:23;;;;;;;;;;;;;;;29.91;100.00;99172.22;4954445;28;19926;-78
2023/08/26 10:31:48;;;;;;;;;;;;;;;30.00;100.00;99173.28;4953405;29;19922;-79
2023/08/26 10:34:14;;;;;;;;;;;;;;;30.14;100.00;99168.03;4953782;29;19969;-79
2023/08/26 10:36:40;;;;;;;;;;;;;;;30.27;100.00;99164.72;4953387;29;19966;-81
2023/08/26 10:39:16;;;;;;;;;;;;;;;30.30;100.00;99155.97;4953443;28;19923;-79
2023/08/26 10:42:00;;;;;;;;;;;;;;;30.32;100.00;99154.63;4953297;29;19962;-77
2023/08/26 10:44:36;;;;;;;;;;;;;;;30.38;100.00;99149.94;4950391;29;19922;-78
2023/08/26 10:47:01;;;;;;;;;;;;;;;30.41;100.00;99131.13;4953181;29;20375;-77
2023/08/26 10:49:29;;;;;;;;;;;;;;;30.44;100.00;99110.72;4954039;29;19922;-77
2023/08/26 10:52:13;;;;;;;;;;;;;;;30.49;100.00;99102.53;4955511;28;20388;-79
2023/08/26 10:54:41;;;;;;;;;;;;;;;30.56;100.00;99096.78;4959815;29;20298;-78
2023/08/26 10:57:07;;;;;;;;;;;;;;;30.63;100.00;99098.06;4953197;28;20022;-78
2023/08/26 10:59:36;;;;;;;;;;;;;;;30.66;100.00;99091.22;4954373;28;19969;-82
2023/08/26 11:02:05;;;;;;;;;;;;;;;30.71;100.00;99083.03;4953810;28;19930;-81
2023/08/26 11:04:31;;;;;;;;;;;;;;;30.70;100.00;99081.38;4952968;28;19926;-82
2023/08/26 11:06:57;;;;;;;;;;;;;;;30.69;100.00;99079.78;4953200;29;19977;-81
2023/08/26 11:09:22;;;;;;;;;;;;;;;30.62;100.00;99069.22;4952675;29;19931;-82
2023/08/26 11:11:47;;;;;;;;;;;;;;;30.60;100.00;99059.69;4953357;29;19922;-83
2023/08/26 11:14:13;;;;;;;;;;;;;;;30.61;100.00;99077.66;4954430;29;19978;-82
2023/08/26 11:16:39;;;;;;;;;;;;;;;30.59;100.00;99085.28;4954118;29;19922;-82
2023/08/26 11:19:06;;;;;;;;;;;;;;;30.54;100.00;99088.06;4953822;29;19934;-82
2023/08/26 11:21:35;;;;;;;;;;;;;;;30.56;100.00;99091.31;4953385;29;19923;-80
2023/08/26 11:24:01;;;;;;;;;;;;;;;30.52;100.00;99091.88;4953239;29;19933;-81
2023/08/26 11:26:27;;;;;;;;;;;;;;;30.53;100.00;99087.25;4953345;29;20364;-77
2023/08/26 11:28:52;;;;;;;;;;;;;;;30.58;100.00;99083.66;4952749;28;19929;-83
2023/08/26 11:31:17;;;;;;;;;;;;;;;30.63;100.00;99091.81;4953262;28;19993;-79
2023/08/26 11:33:43;;;;;;;;;;;;;;;30.65;100.00;99090.41;4953726;28;19950;-80
2023/08/26 11:36:08;;;;;;;;;;;;;;;30.63;100.00;99097.25;4951896;29;19927;-79
2023/08/26 11:38:34;;;;;;;;;;;;;;;30.73;100.00;99097.19;4952728;28;19944;-85
2023/08/26 11:41:02;;;;;;;;;;;;;;;30.78;100.00;99094.41;4953349;28;19923;-83
2023/08/26 11:43:28;;;;;;;;;;;;;;;30.88;100.00;99099.75;4951983;29;19985;-80
2023/08/26 11:45:54;;;;;;;;;;;;;;;30.96;100.00;99099.16;4953135;29;20388;-81
2023/08/26 11:48:20;;;;;;;;;;;;;;;31.03;100.00;99088.72;4953165;28;20376;-83
2023/08/26 11:50:46;;;;;;;;;;;;;;;31.09;100.00;99087.63;4953509;29;19930;-84
2023/08/26 11:53:11;;;;;;;;;;;;;;;31.14;100.00;99076.66;4952849;29;19926;-88
2023/08/26 11:55:38;;;;;;;;;;;;;;;31.28;99.97;99058.50;4953042;29;19922;-84
2023/08/26 11:58:04;;;;;;;;;;;;;;;31.43;98.67;99051.25;4952997;29;19926;-80
2023/08/26 12:00:30;;;;;;;;;;;;;;;31.54;98.30;99052.75;4951979;29;19945;-76
2023/08/26 12:03:06;;;;;;;;;;;;;;;31.77;97.51;99062.84;4951724;29;19922;-77
2023/08/26 12:05:41;;;;;;;;;;;;;;;31.85;95.80;99062.19;4952485;29;19945;-77
2023/08/26 12:08:11;;;;;;;;;;;;;;;32.16;94.64;99053.59;4952735;28;20005;-77
2023/08/26 12:10:37;;;;;;;;;;;;;;;32.41;93.09;99058.66;4952115;29;19940;-76
2023/08/26 12:13:04;;;;;;;;;;;;;;;32.54;92.17;99044.25;4952886;29;20009;-76
2023/08/26 12:15:30;;;;;;;;;;;;;;;32.66;91.45;99052.81;4952255;28;19958;-77
2023/08/26 12:17:55;;;;;;;;;;;;;;;32.78;90.14;99050.41;4951875;29;20332;-76
2023/08/26 12:20:22;;;;;;;;;;;;;;;32.87;89.86;99045.84;4950719;28;19926;-77
2023/08/26 12:22:47;;;;;;;;;;;;;;;32.90;88.62;99047.19;4947467;28;19926;-77
2023/08/26 12:25:19;;;;;;;;;;;;;;;32.84;88.19;99027.34;4952291;29;20375;-77
2023/08/26 12:27:44;;;;;;;;;;;;;;;32.73;89.75;99012.25;4951521;29;20395;-77
2023/08/26 12:30:09;;;;;;;;;;;;;;;32.58;90.79;98996.09;4955655;28;19977;-77
2023/08/26 12:32:35;;;;;;;;;;;;;;;32.48;91.40;98963.50;4951312;29;19941;-77